sensor_id;sensor_type;location;lat;lon;timestamp;P1;durP1;ratioP1;P2;durP2;ratioP2
68987;SDS011;56038;46.080;11.116;2022-11-15T00:00:21;12.15;;;8.48;;
68987;SDS011;56038;46.080;11.116;2022-11-15T00:05:25;11.40;;;9.10;;
68987;SDS011;56038;46.080;11.116;2022-11-15T00:10:28;12.38;;;9.45;;
68987;SDS011;56038;46.080;11.116;2022-11-15T00:15:32;10.40;;;8.18;;
68987;SDS011;56038;46.080;11.116;2022-11-15T00:20:36;11.07;;;8.75;;
68987;SDS011;56038;46.080;11.116;2022-11-15T00:25:38;12.55;;;9.75;;
68987;SDS011;56038;46.080;11.116;2022-11-15T00:30:41;11.23;;;9.13;;
68987;SDS011;56038;46.080;11.116;2022-11-15T00:35:43;11.65;;;8.90;;
68987;SDS011;56038;46.080;11.116;2022-11-15T00:40:45;10.82;;;8.52;;
68987;SDS011;56038;46.080;11.116;2022-11-15T00:45:48;11.80;;;9.20;;
68987;SDS011;56038;46.080;11.116;2022-11-15T00:50:50;10.32;;;8.18;;
68987;SDS011;56038;46.080;11.116;2022-11-15T00:55:52;12.75;;;10.15;;
68987;SDS011;56038;46.080;11.116;2022-11-15T01:00:55;11.65;;;9.02;;
68987;SDS011;56038;46.080;11.116;2022-11-15T01:05:58;10.65;;;8.52;;
68987;SDS011;56038;46.080;11.116;2022-11-15T01:11:00;9.55;;;8.55;;
68987;SDS011;56038;46.080;11.116;2022-11-15T01:16:09;12.32;;;8.52;;
68987;SDS011;56038;46.080;11.116;2022-11-15T01:21:13;11.68;;;8.40;;
68987;SDS011;56038;46.080;11.116;2022-11-15T01:26:16;10.32;;;8.63;;
68987;SDS011;56038;46.080;11.116;2022-11-15T01:31:20;9.00;;;7.65;;
68987;SDS011;56038;46.080;11.116;2022-11-15T01:36:22;9.73;;;8.00;;
68987;SDS011;56038;46.080;11.116;2022-11-15T01:41:25;10.18;;;7.53;;
68987;SDS011;56038;46.080;11.116;2022-11-15T01:46:31;10.00;;;7.50;;
68987;SDS011;56038;46.080;11.116;2022-11-15T01:51:36;10.50;;;7.85;;
68987;SDS011;56038;46.080;11.116;2022-11-15T01:56:39;11.40;;;8.02;;
68987;SDS011;56038;46.080;11.116;2022-11-15T02:01:47;10.40;;;7.57;;
68987;SDS011;56038;46.080;11.116;2022-11-15T02:06:49;13.05;;;8.38;;
68987;SDS011;56038;46.080;11.116;2022-11-15T02:11:51;9.60;;;7.47;;
68987;SDS011;56038;46.080;11.116;2022-11-15T02:16:58;9.30;;;7.85;;
68987;SDS011;56038;46.080;11.116;2022-11-15T02:22:10;10.63;;;7.38;;
68987;SDS011;56038;46.080;11.116;2022-11-15T02:33:11;10.35;;;7.97;;
68987;SDS011;56038;46.080;11.116;2022-11-15T02:38:24;9.55;;;7.65;;
68987;SDS011;56038;46.080;11.116;2022-11-15T02:43:36;8.20;;;7.40;;
68987;SDS011;56038;46.080;11.116;2022-11-15T02:49:03;7.95;;;7.10;;
68987;SDS011;56038;46.080;11.116;2022-11-15T02:54:05;10.35;;;7.50;;
68987;SDS011;56038;46.080;11.116;2022-11-15T02:59:11;8.95;;;6.88;;
68987;SDS011;56038;46.080;11.116;2022-11-15T03:04:35;7.22;;;6.35;;
68987;SDS011;56038;46.080;11.116;2022-11-15T03:09:45;7.32;;;6.53;;
68987;SDS011;56038;46.080;11.116;2022-11-15T03:14:54;8.13;;;6.32;;
68987;SDS011;56038;46.080;11.116;2022-11-15T03:20:02;6.40;;;5.68;;
68987;SDS011;56038;46.080;11.116;2022-11-15T03:25:07;7.88;;;5.78;;
68987;SDS011;56038;46.080;11.116;2022-11-15T03:30:12;9.30;;;6.17;;
68987;SDS011;56038;46.080;11.116;2022-11-15T03:35:17;8.20;;;6.03;;
68987;SDS011;56038;46.080;11.116;2022-11-15T03:40:22;7.60;;;5.68;;
68987;SDS011;56038;46.080;11.116;2022-11-15T03:45:31;6.95;;;5.80;;
68987;SDS011;56038;46.080;11.116;2022-11-15T03:50:38;8.85;;;6.35;;
68987;SDS011;56038;46.080;11.116;2022-11-15T03:55:41;7.75;;;5.80;;
68987;SDS011;56038;46.080;11.116;2022-11-15T04:00:42;9.00;;;5.50;;
68987;SDS011;56038;46.080;11.116;2022-11-15T04:05:46;7.22;;;5.07;;
68987;SDS011;56038;46.080;11.116;2022-11-15T04:10:48;6.40;;;5.80;;
68987;SDS011;56038;46.080;11.116;2022-11-15T04:15:50;6.13;;;4.63;;
68987;SDS011;56038;46.080;11.116;2022-11-15T04:20:54;6.72;;;4.65;;
68987;SDS011;56038;46.080;11.116;2022-11-15T04:26:14;5.72;;;4.68;;
68987;SDS011;56038;46.080;11.116;2022-11-15T04:31:18;6.17;;;5.17;;
68987;SDS011;56038;46.080;11.116;2022-11-15T04:36:22;6.80;;;4.70;;
68987;SDS011;56038;46.080;11.116;2022-11-15T04:41:41;6.07;;;4.32;;
68987;SDS011;56038;46.080;11.116;2022-11-15T04:46:43;6.45;;;4.45;;
68987;SDS011;56038;46.080;11.116;2022-11-15T04:51:46;5.20;;;4.60;;
68987;SDS011;56038;46.080;11.116;2022-11-15T04:56:48;5.50;;;4.65;;
68987;SDS011;56038;46.080;11.116;2022-11-15T05:01:50;6.70;;;5.05;;
68987;SDS011;56038;46.080;11.116;2022-11-15T05:06:53;5.70;;;5.10;;
68987;SDS011;56038;46.080;11.116;2022-11-15T05:11:55;6.43;;;5.18;;
68987;SDS011;56038;46.080;11.116;2022-11-15T05:16:56;7.95;;;4.88;;
68987;SDS011;56038;46.080;11.116;2022-11-15T05:21:59;7.78;;;5.03;;
68987;SDS011;56038;46.080;11.116;2022-11-15T05:27:01;7.68;;;5.20;;
68987;SDS011;56038;46.080;11.116;2022-11-15T05:32:03;6.00;;;4.78;;
68987;SDS011;56038;46.080;11.116;2022-11-15T05:37:08;7.00;;;5.65;;
68987;SDS011;56038;46.080;11.116;2022-11-15T05:42:11;9.20;;;6.28;;
68987;SDS011;56038;46.080;11.116;2022-11-15T05:47:15;6.05;;;5.40;;
68987;SDS011;56038;46.080;11.116;2022-11-15T05:52:22;6.57;;;4.78;;
68987;SDS011;56038;46.080;11.116;2022-11-15T05:57:29;6.28;;;5.38;;
68987;SDS011;56038;46.080;11.116;2022-11-15T06:02:30;6.00;;;4.97;;
68987;SDS011;56038;46.080;11.116;2022-11-15T06:07:34;6.55;;;5.82;;
68987;SDS011;56038;46.080;11.116;2022-11-15T06:12:35;8.60;;;4.95;;
68987;SDS011;56038;46.080;11.116;2022-11-15T06:17:37;7.60;;;4.90;;
68987;SDS011;56038;46.080;11.116;2022-11-15T06:22:40;8.82;;;5.05;;
68987;SDS011;56038;46.080;11.116;2022-11-15T06:27:42;7.30;;;5.85;;
68987;SDS011;56038;46.080;11.116;2022-11-15T06:32:44;7.55;;;5.22;;
68987;SDS011;56038;46.080;11.116;2022-11-15T06:37:47;24.50;;;13.38;;
68987;SDS011;56038;46.080;11.116;2022-11-15T06:42:49;8.52;;;6.13;;
68987;SDS011;56038;46.080;11.116;2022-11-15T06:47:50;6.72;;;5.82;;
68987;SDS011;56038;46.080;11.116;2022-11-15T06:52:53;8.73;;;6.70;;
68987;SDS011;56038;46.080;11.116;2022-11-15T06:57:55;11.35;;;7.38;;
68987;SDS011;56038;46.080;11.116;2022-11-15T07:02:59;12.10;;;7.20;;
68987;SDS011;56038;46.080;11.116;2022-11-15T07:08:02;11.20;;;7.82;;
68987;SDS011;56038;46.080;11.116;2022-11-15T07:13:05;7.88;;;6.90;;
68987;SDS011;56038;46.080;11.116;2022-11-15T07:18:06;7.35;;;5.88;;
68987;SDS011;56038;46.080;11.116;2022-11-15T07:23:09;9.27;;;5.75;;
68987;SDS011;56038;46.080;11.116;2022-11-15T07:28:11;7.90;;;5.72;;
68987;SDS011;56038;46.080;11.116;2022-11-15T07:33:13;7.60;;;5.57;;
68987;SDS011;56038;46.080;11.116;2022-11-15T07:38:17;9.88;;;6.15;;
68987;SDS011;56038;46.080;11.116;2022-11-15T07:43:20;27.65;;;15.80;;
68987;SDS011;56038;46.080;11.116;2022-11-15T07:48:22;6.90;;;5.63;;
68987;SDS011;56038;46.080;11.116;2022-11-15T07:53:25;6.57;;;5.38;;
68987;SDS011;56038;46.080;11.116;2022-11-15T07:58:27;8.20;;;6.20;;
68987;SDS011;56038;46.080;11.116;2022-11-15T08:03:28;7.60;;;6.10;;
68987;SDS011;56038;46.080;11.116;2022-11-15T08:08:32;7.80;;;6.10;;
68987;SDS011;56038;46.080;11.116;2022-11-15T08:13:33;10.43;;;6.10;;
68987;SDS011;56038;46.080;11.116;2022-11-15T08:18:35;5.43;;;4.88;;
68987;SDS011;56038;46.080;11.116;2022-11-15T08:23:38;6.47;;;4.95;;
68987;SDS011;56038;46.080;11.116;2022-11-15T08:28:40;7.40;;;4.90;;
68987;SDS011;56038;46.080;11.116;2022-11-15T08:33:43;9.93;;;5.38;;
68987;SDS011;56038;46.080;11.116;2022-11-15T08:38:47;5.30;;;4.80;;
68987;SDS011;56038;46.080;11.116;2022-11-15T08:43:48;5.18;;;4.60;;
68987;SDS011;56038;46.080;11.116;2022-11-15T08:48:50;4.95;;;4.55;;
68987;SDS011;56038;46.080;11.116;2022-11-15T08:53:53;5.95;;;4.63;;
68987;SDS011;56038;46.080;11.116;2022-11-15T08:58:55;6.43;;;4.60;;
68987;SDS011;56038;46.080;11.116;2022-11-15T09:03:57;9.57;;;5.32;;
68987;SDS011;56038;46.080;11.116;2022-11-15T09:09:01;5.10;;;4.60;;
68987;SDS011;56038;46.080;11.116;2022-11-15T09:14:04;5.73;;;5.13;;
68987;SDS011;56038;46.080;11.116;2022-11-15T09:19:05;5.85;;;4.75;;
68987;SDS011;56038;46.080;11.116;2022-11-15T09:24:09;5.43;;;4.78;;
68987;SDS011;56038;46.080;11.116;2022-11-15T09:29:11;8.40;;;5.28;;
68987;SDS011;56038;46.080;11.116;2022-11-15T09:34:12;7.30;;;5.03;;
68987;SDS011;56038;46.080;11.116;2022-11-15T09:39:16;5.50;;;5.00;;
68987;SDS011;56038;46.080;11.116;2022-11-15T09:44:25;5.78;;;4.93;;
68987;SDS011;56038;46.080;11.116;2022-11-15T09:49:57;5.85;;;5.10;;
68987;SDS011;56038;46.080;11.116;2022-11-15T09:55:04;6.70;;;4.40;;
68987;SDS011;56038;46.080;11.116;2022-11-15T10:00:12;4.60;;;4.20;;
68987;SDS011;56038;46.080;11.116;2022-11-15T10:05:19;4.53;;;4.00;;
68987;SDS011;56038;46.080;11.116;2022-11-15T10:10:29;4.47;;;4.07;;
68987;SDS011;56038;46.080;11.116;2022-11-15T10:15:44;6.55;;;4.75;;
68987;SDS011;56038;46.080;11.116;2022-11-15T10:20:49;5.45;;;4.28;;
68987;SDS011;56038;46.080;11.116;2022-11-15T10:25:59;4.57;;;4.15;;
68987;SDS011;56038;46.080;11.116;2022-11-15T10:31:01;5.15;;;4.75;;
68987;SDS011;56038;46.080;11.116;2022-11-15T10:36:14;4.38;;;3.97;;
68987;SDS011;56038;46.080;11.116;2022-11-15T10:41:19;4.93;;;4.45;;
68987;SDS011;56038;46.080;11.116;2022-11-15T10:46:23;6.25;;;4.63;;
68987;SDS011;56038;46.080;11.116;2022-11-15T10:51:26;4.47;;;4.03;;
68987;SDS011;56038;46.080;11.116;2022-11-15T10:56:32;5.45;;;4.95;;
68987;SDS011;56038;46.080;11.116;2022-11-15T11:01:34;6.15;;;4.65;;
68987;SDS011;56038;46.080;11.116;2022-11-15T11:06:47;5.53;;;4.97;;
68987;SDS011;56038;46.080;11.116;2022-11-15T11:11:52;6.07;;;4.47;;
68987;SDS011;56038;46.080;11.116;2022-11-15T11:16:54;4.85;;;4.10;;
68987;SDS011;56038;46.080;11.116;2022-11-15T11:22:04;4.90;;;4.40;;
68987;SDS011;56038;46.080;11.116;2022-11-15T11:27:17;5.13;;;4.72;;
68987;SDS011;56038;46.080;11.116;2022-11-15T11:32:34;5.55;;;4.40;;
68987;SDS011;56038;46.080;11.116;2022-11-15T11:37:57;5.45;;;4.10;;
68987;SDS011;56038;46.080;11.116;2022-11-15T11:43:15;6.95;;;5.15;;
68987;SDS011;56038;46.080;11.116;2022-11-15T11:48:27;8.07;;;5.72;;
68987;SDS011;56038;46.080;11.116;2022-11-15T11:53:41;9.77;;;6.50;;
68987;SDS011;56038;46.080;11.116;2022-11-15T11:58:49;8.20;;;5.22;;
68987;SDS011;56038;46.080;11.116;2022-11-15T12:03:55;6.13;;;5.05;;
68987;SDS011;56038;46.080;11.116;2022-11-15T12:09:02;5.57;;;4.45;;
68987;SDS011;56038;46.080;11.116;2022-11-15T12:14:11;6.38;;;4.78;;
68987;SDS011;56038;46.080;11.116;2022-11-15T12:19:17;6.78;;;4.90;;
68987;SDS011;56038;46.080;11.116;2022-11-15T12:24:20;6.32;;;4.63;;
68987;SDS011;56038;46.080;11.116;2022-11-15T12:29:28;5.97;;;4.38;;
68987;SDS011;56038;46.080;11.116;2022-11-15T12:34:36;5.43;;;4.93;;
68987;SDS011;56038;46.080;11.116;2022-11-15T12:45:27;5.82;;;4.60;;
68987;SDS011;56038;46.080;11.116;2022-11-15T13:07:08;7.10;;;4.70;;
68987;SDS011;56038;46.080;11.116;2022-11-15T13:12:48;7.78;;;4.95;;
68987;SDS011;56038;46.080;11.116;2022-11-15T13:17:53;5.38;;;4.55;;
68987;SDS011;56038;46.080;11.116;2022-11-15T13:23:02;5.47;;;4.95;;
68987;SDS011;56038;46.080;11.116;2022-11-15T13:28:11;5.80;;;4.40;;
68987;SDS011;56038;46.080;11.116;2022-11-15T13:33:22;6.15;;;4.47;;
68987;SDS011;56038;46.080;11.116;2022-11-15T13:38:31;5.28;;;4.38;;
68987;SDS011;56038;46.080;11.116;2022-11-15T13:43:34;6.67;;;5.30;;
68987;SDS011;56038;46.080;11.116;2022-11-15T13:48:37;5.50;;;4.47;;
68987;SDS011;56038;46.080;11.116;2022-11-15T13:53:41;4.95;;;4.55;;
68987;SDS011;56038;46.080;11.116;2022-11-15T13:58:47;6.55;;;5.20;;
68987;SDS011;56038;46.080;11.116;2022-11-15T14:03:50;7.13;;;5.90;;
68987;SDS011;56038;46.080;11.116;2022-11-15T14:14:45;9.63;;;5.13;;
68987;SDS011;56038;46.080;11.116;2022-11-15T14:19:47;8.35;;;5.93;;
68987;SDS011;56038;46.080;11.116;2022-11-15T14:25:07;6.45;;;5.20;;
68987;SDS011;56038;46.080;11.116;2022-11-15T14:30:17;5.57;;;4.77;;
68987;SDS011;56038;46.080;11.116;2022-11-15T14:35:20;5.53;;;5.03;;
68987;SDS011;56038;46.080;11.116;2022-11-15T14:40:23;5.60;;;5.07;;
68987;SDS011;56038;46.080;11.116;2022-11-15T14:45:27;6.63;;;4.95;;
68987;SDS011;56038;46.080;11.116;2022-11-15T14:50:29;6.22;;;5.00;;
68987;SDS011;56038;46.080;11.116;2022-11-15T14:55:34;5.35;;;4.63;;
68987;SDS011;56038;46.080;11.116;2022-11-15T15:00:39;6.10;;;5.38;;
68987;SDS011;56038;46.080;11.116;2022-11-15T15:05:44;5.63;;;4.78;;
68987;SDS011;56038;46.080;11.116;2022-11-15T15:10:51;6.00;;;5.10;;
68987;SDS011;56038;46.080;11.116;2022-11-15T15:15:54;6.05;;;5.10;;
68987;SDS011;56038;46.080;11.116;2022-11-15T15:20:56;6.82;;;5.72;;
68987;SDS011;56038;46.080;11.116;2022-11-15T15:26:03;5.90;;;5.30;;
68987;SDS011;56038;46.080;11.116;2022-11-15T15:31:06;8.30;;;5.40;;
68987;SDS011;56038;46.080;11.116;2022-11-15T15:36:09;6.47;;;5.60;;
68987;SDS011;56038;46.080;11.116;2022-11-15T15:41:13;9.18;;;7.72;;
68987;SDS011;56038;46.080;11.116;2022-11-15T15:46:17;14.80;;;10.50;;
68987;SDS011;56038;46.080;11.116;2022-11-15T15:51:20;12.80;;;8.40;;
68987;SDS011;56038;46.080;11.116;2022-11-15T15:56:22;17.98;;;7.20;;
68987;SDS011;56038;46.080;11.116;2022-11-15T16:01:26;8.15;;;6.78;;
68987;SDS011;56038;46.080;11.116;2022-11-15T16:06:33;7.00;;;6.30;;
68987;SDS011;56038;46.080;11.116;2022-11-15T16:11:36;9.65;;;6.18;;
68987;SDS011;56038;46.080;11.116;2022-11-15T16:16:39;6.20;;;5.50;;
68987;SDS011;56038;46.080;11.116;2022-11-15T16:21:41;7.78;;;5.93;;
68987;SDS011;56038;46.080;11.116;2022-11-15T16:26:43;6.93;;;5.85;;
68987;SDS011;56038;46.080;11.116;2022-11-15T16:31:47;8.95;;;6.38;;
68987;SDS011;56038;46.080;11.116;2022-11-15T16:36:49;10.13;;;6.55;;
68987;SDS011;56038;46.080;11.116;2022-11-15T16:41:51;9.90;;;6.90;;
68987;SDS011;56038;46.080;11.116;2022-11-15T16:46:55;10.77;;;6.25;;
68987;SDS011;56038;46.080;11.116;2022-11-15T16:51:56;6.68;;;5.47;;
68987;SDS011;56038;46.080;11.116;2022-11-15T16:56:58;10.13;;;6.93;;
68987;SDS011;56038;46.080;11.116;2022-11-15T17:02:01;7.00;;;6.35;;
68987;SDS011;56038;46.080;11.116;2022-11-15T17:07:03;7.60;;;6.32;;
68987;SDS011;56038;46.080;11.116;2022-11-15T17:12:06;10.77;;;7.25;;
68987;SDS011;56038;46.080;11.116;2022-11-15T17:17:12;8.00;;;5.70;;
68987;SDS011;56038;46.080;11.116;2022-11-15T17:22:13;9.23;;;7.15;;
68987;SDS011;56038;46.080;11.116;2022-11-15T17:27:15;8.30;;;6.45;;
68987;SDS011;56038;46.080;11.116;2022-11-15T17:32:19;33.50;;;17.85;;
68987;SDS011;56038;46.080;11.116;2022-11-15T17:37:20;11.55;;;7.90;;
68987;SDS011;56038;46.080;11.116;2022-11-15T17:42:22;10.40;;;6.97;;
68987;SDS011;56038;46.080;11.116;2022-11-15T17:47:25;9.05;;;7.47;;
68987;SDS011;56038;46.080;11.116;2022-11-15T17:52:27;9.43;;;7.43;;
68987;SDS011;56038;46.080;11.116;2022-11-15T17:57:29;9.43;;;6.57;;
68987;SDS011;56038;46.080;11.116;2022-11-15T18:02:32;8.80;;;6.82;;
68987;SDS011;56038;46.080;11.116;2022-11-15T18:07:34;7.07;;;6.25;;
68987;SDS011;56038;46.080;11.116;2022-11-15T18:12:36;9.85;;;7.40;;
68987;SDS011;56038;46.080;11.116;2022-11-15T18:17:39;8.15;;;6.72;;
68987;SDS011;56038;46.080;11.116;2022-11-15T18:22:41;7.57;;;6.72;;
68987;SDS011;56038;46.080;11.116;2022-11-15T18:27:42;7.05;;;5.97;;
68987;SDS011;56038;46.080;11.116;2022-11-15T18:32:46;7.93;;;6.50;;
68987;SDS011;56038;46.080;11.116;2022-11-15T18:37:47;9.75;;;6.90;;
68987;SDS011;56038;46.080;11.116;2022-11-15T18:42:51;9.63;;;7.30;;
68987;SDS011;56038;46.080;11.116;2022-11-15T18:47:55;11.35;;;8.30;;
68987;SDS011;56038;46.080;11.116;2022-11-15T18:52:57;9.90;;;7.47;;
68987;SDS011;56038;46.080;11.116;2022-11-15T18:58:00;10.85;;;7.78;;
68987;SDS011;56038;46.080;11.116;2022-11-15T19:03:03;8.35;;;7.00;;
68987;SDS011;56038;46.080;11.116;2022-11-15T19:08:05;9.60;;;7.30;;
68987;SDS011;56038;46.080;11.116;2022-11-15T19:13:06;9.82;;;7.28;;
68987;SDS011;56038;46.080;11.116;2022-11-15T19:18:10;10.10;;;7.13;;
68987;SDS011;56038;46.080;11.116;2022-11-15T19:23:11;8.98;;;7.85;;
68987;SDS011;56038;46.080;11.116;2022-11-15T19:28:13;8.82;;;7.75;;
68987;SDS011;56038;46.080;11.116;2022-11-15T19:33:17;11.23;;;9.30;;
68987;SDS011;56038;46.080;11.116;2022-11-15T19:38:20;12.10;;;9.90;;
68987;SDS011;56038;46.080;11.116;2022-11-15T19:43:22;11.32;;;9.65;;
68987;SDS011;56038;46.080;11.116;2022-11-15T19:48:25;10.52;;;9.05;;
68987;SDS011;56038;46.080;11.116;2022-11-15T19:53:28;14.27;;;12.68;;
68987;SDS011;56038;46.080;11.116;2022-11-15T19:58:30;14.20;;;11.20;;
68987;SDS011;56038;46.080;11.116;2022-11-15T20:03:35;10.60;;;9.68;;
68987;SDS011;56038;46.080;11.116;2022-11-15T20:08:38;10.27;;;8.52;;
68987;SDS011;56038;46.080;11.116;2022-11-15T20:13:40;9.98;;;8.85;;
68987;SDS011;56038;46.080;11.116;2022-11-15T20:18:43;11.68;;;8.90;;
68987;SDS011;56038;46.080;11.116;2022-11-15T20:23:46;15.38;;;10.32;;
68987;SDS011;56038;46.080;11.116;2022-11-15T20:28:49;28.25;;;12.88;;
68987;SDS011;56038;46.080;11.116;2022-11-15T20:33:52;30.92;;;14.30;;
68987;SDS011;56038;46.080;11.116;2022-11-15T20:38:57;22.95;;;14.07;;
68987;SDS011;56038;46.080;11.116;2022-11-15T20:43:59;11.30;;;9.00;;
68987;SDS011;56038;46.080;11.116;2022-11-15T20:49:04;12.85;;;9.60;;
68987;SDS011;56038;46.080;11.116;2022-11-15T20:54:06;9.98;;;8.70;;
68987;SDS011;56038;46.080;11.116;2022-11-15T20:59:08;12.95;;;8.80;;
68987;SDS011;56038;46.080;11.116;2022-11-15T21:04:11;11.77;;;9.27;;
68987;SDS011;56038;46.080;11.116;2022-11-15T21:09:12;12.88;;;9.20;;
68987;SDS011;56038;46.080;11.116;2022-11-15T21:14:35;15.73;;;10.35;;
68987;SDS011;56038;46.080;11.116;2022-11-15T21:19:38;13.30;;;10.02;;
68987;SDS011;56038;46.080;11.116;2022-11-15T21:24:40;13.70;;;10.35;;
68987;SDS011;56038;46.080;11.116;2022-11-15T21:29:42;19.10;;;12.10;;
68987;SDS011;56038;46.080;11.116;2022-11-15T21:34:46;15.20;;;11.57;;
68987;SDS011;56038;46.080;11.116;2022-11-15T21:39:47;19.20;;;14.93;;
68987;SDS011;56038;46.080;11.116;2022-11-15T21:44:49;16.42;;;12.43;;
68987;SDS011;56038;46.080;11.116;2022-11-15T21:49:52;15.30;;;9.88;;
68987;SDS011;56038;46.080;11.116;2022-11-15T21:54:54;11.30;;;9.75;;
68987;SDS011;56038;46.080;11.116;2022-11-15T21:59:56;12.23;;;10.05;;
68987;SDS011;56038;46.080;11.116;2022-11-15T22:05:17;11.70;;;9.20;;
68987;SDS011;56038;46.080;11.116;2022-11-15T22:10:20;13.75;;;8.85;;
68987;SDS011;56038;46.080;11.116;2022-11-15T22:15:21;9.73;;;8.35;;
68987;SDS011;56038;46.080;11.116;2022-11-15T22:20:25;12.70;;;8.57;;
68987;SDS011;56038;46.080;11.116;2022-11-15T22:25:29;11.50;;;8.38;;
68987;SDS011;56038;46.080;11.116;2022-11-15T22:30:31;10.98;;;8.63;;
68987;SDS011;56038;46.080;11.116;2022-11-15T22:35:34;11.40;;;8.27;;
68987;SDS011;56038;46.080;11.116;2022-11-15T22:40:36;12.10;;;9.32;;
68987;SDS011;56038;46.080;11.116;2022-11-15T22:45:45;12.25;;;9.30;;
68987;SDS011;56038;46.080;11.116;2022-11-15T22:50:59;11.18;;;9.40;;
68987;SDS011;56038;46.080;11.116;2022-11-15T22:56:02;15.00;;;9.65;;
68987;SDS011;56038;46.080;11.116;2022-11-15T23:01:05;13.65;;;10.07;;
68987;SDS011;56038;46.080;11.116;2022-11-15T23:06:09;13.90;;;10.45;;
68987;SDS011;56038;46.080;11.116;2022-11-15T23:11:10;13.23;;;9.13;;
68987;SDS011;56038;46.080;11.116;2022-11-15T23:16:30;11.27;;;8.98;;
68987;SDS011;56038;46.080;11.116;2022-11-15T23:21:37;11.87;;;8.37;;
68987;SDS011;56038;46.080;11.116;2022-11-15T23:26:58;10.20;;;8.48;;
68987;SDS011;56038;46.080;11.116;2022-11-15T23:32:01;11.35;;;9.00;;
68987;SDS011;56038;46.080;11.116;2022-11-15T23:37:33;14.25;;;7.93;;
68987;SDS011;56038;46.080;11.116;2022-11-15T23:42:35;10.20;;;8.77;;
68987;SDS011;56038;46.080;11.116;2022-11-15T23:47:37;11.10;;;8.23;;
68987;SDS011;56038;46.080;11.116;2022-11-15T23:52:40;12.32;;;9.55;;
68987;SDS011;56038;46.080;11.116;2022-11-15T23:57:42;10.73;;;8.98;;
